createdAt,value
2022-07-27T03:45:34.355Z,19.10
2022-07-27T03:48:01.204Z,19.10
2022-07-27T03:50:29.236Z,19.10
2022-07-27T03:52:56.405Z,19.10
2022-07-27T03:55:23.268Z,19.10
2022-07-27T03:57:51.025Z,19.10
2022-07-27T04:00:18.297Z,19.10
2022-07-27T04:02:45.259Z,19.10
2022-07-27T04:05:12.666Z,19.10
2022-07-27T04:07:40.612Z,19.20
2022-07-27T04:10:09.873Z,19.30
2022-07-27T04:12:38.710Z,19.30
2022-07-27T04:15:06.973Z,19.20
2022-07-27T04:17:55.569Z,19.20
2022-07-27T04:20:20.616Z,19.10
2022-07-27T04:22:47.370Z,19.10
2022-07-27T04:25:14.299Z,19.20
2022-07-27T04:27:41.086Z,19.20
2022-07-27T04:30:09.802Z,19.20
2022-07-27T04:32:36.823Z,19.30
2022-07-27T04:35:03.899Z,19.30
2022-07-27T04:37:32.334Z,19.30
2022-07-27T04:39:59.487Z,19.30
2022-07-27T04:42:26.318Z,19.30
2022-07-27T04:44:53.044Z,19.40
2022-07-27T04:47:19.803Z,19.40
2022-07-27T04:49:46.592Z,19.40
2022-07-27T04:52:16.245Z,19.40
2022-07-27T04:54:43.239Z,19.50
2022-07-27T04:57:10.077Z,19.50
2022-07-27T04:59:36.826Z,19.50
2022-07-27T05:02:03.680Z,19.50
2022-07-27T05:04:30.728Z,19.50
2022-07-27T05:06:57.927Z,19.60
2022-07-27T05:09:24.765Z,19.60
2022-07-27T05:11:52.273Z,19.60
2022-07-27T05:14:21.302Z,19.60
2022-07-27T05:16:49.721Z,19.70
2022-07-27T05:19:16.997Z,19.80
2022-07-27T05:21:44.198Z,19.80
2022-07-27T05:24:11.294Z,19.90
2022-07-27T05:26:38.428Z,19.90
2022-07-27T05:29:05.435Z,19.90
2022-07-27T05:31:32.309Z,20.00
2022-07-27T05:33:59.153Z,20.00
2022-07-27T05:36:26.468Z,20.00
2022-07-27T05:38:53.255Z,20.10
2022-07-27T05:41:25.194Z,20.20
2022-07-27T05:43:54.294Z,20.30
2022-07-27T05:46:21.871Z,20.40
2022-07-27T05:48:49.321Z,20.40
2022-07-27T05:51:16.178Z,20.50
2022-07-27T05:53:43.044Z,20.50
2022-07-27T05:56:09.835Z,20.60
2022-07-27T05:58:36.695Z,20.60
2022-07-27T06:01:03.801Z,20.60
2022-07-27T06:03:31.260Z,20.60
2022-07-27T06:06:30.277Z,20.50
2022-07-27T06:08:57.171Z,20.60
2022-07-27T06:11:24.036Z,20.60
2022-07-27T06:13:52.779Z,20.60
2022-07-27T06:16:19.688Z,20.70
2022-07-27T06:18:46.423Z,20.80
2022-07-27T06:21:13.332Z,20.80
2022-07-27T06:23:40.055Z,20.80
2022-07-27T06:26:06.875Z,20.90
2022-07-27T06:28:33.602Z,21.00
2022-07-27T06:31:01.264Z,21.10
2022-07-27T06:33:29.377Z,21.20
2022-07-27T06:35:58.253Z,21.40
2022-07-27T06:38:26.053Z,21.50
2022-07-27T06:40:53.769Z,21.60
2022-07-27T06:43:22.466Z,21.60
2022-07-27T06:45:49.687Z,21.70
2022-07-27T06:48:17.234Z,21.80
2022-07-27T06:50:44.700Z,21.90
2022-07-27T06:53:11.430Z,22.00
2022-07-27T06:55:38.561Z,22.00
2022-07-27T06:58:05.685Z,22.10
2022-07-27T07:00:32.692Z,22.20
2022-07-27T07:03:03.011Z,22.20
2022-07-27T07:05:31.138Z,22.20
2022-07-27T07:07:58.784Z,22.20
2022-07-27T07:10:26.502Z,22.20
2022-07-27T07:12:57.110Z,22.20
2022-07-27T07:15:25.324Z,22.20
2022-07-27T07:17:53.075Z,22.20
2022-07-27T07:20:19.936Z,22.30
2022-07-27T07:22:46.667Z,22.30
2022-07-27T07:25:13.485Z,22.40
2022-07-27T07:27:40.282Z,22.50
2022-07-27T07:30:07.561Z,22.60
2022-07-27T07:32:34.381Z,22.70
2022-07-27T07:35:03.743Z,22.80
2022-07-27T07:37:34.043Z,22.90
2022-07-27T07:40:18.765Z,22.90
2022-07-27T07:42:49.436Z,23.00
2022-07-27T07:45:16.816Z,23.10
2022-07-27T07:47:43.846Z,23.10
2022-07-27T07:50:11.052Z,23.10
2022-07-27T07:52:37.868Z,23.10
2022-07-27T07:55:05.085Z,23.20
2022-07-27T07:57:31.960Z,23.30
2022-07-27T07:59:58.703Z,23.50
2022-07-27T08:02:25.598Z,23.50
2022-07-27T08:04:55.502Z,23.70
2022-07-27T08:07:22.436Z,23.60
2022-07-27T08:09:49.248Z,23.60
2022-07-27T08:12:15.973Z,23.80
2022-07-27T08:14:42.876Z,24.00
2022-07-27T08:17:09.634Z,24.10
2022-07-27T08:19:40.083Z,24.30
2022-07-27T08:22:07.280Z,24.50
2022-07-27T08:24:34.258Z,24.60
2022-07-27T08:27:01.422Z,24.70
2022-07-27T08:29:35.943Z,24.90
2022-07-27T08:32:04.066Z,25.00
2022-07-27T08:34:32.921Z,25.20
2022-07-27T08:36:59.728Z,25.40
2022-07-27T08:40:12.329Z,25.50
2022-07-27T08:42:13.647Z,25.70
2022-07-27T08:44:41.336Z,25.80
2022-07-27T08:47:13.852Z,25.90
2022-07-27T08:49:43.993Z,26.10
2022-07-27T08:52:12.230Z,26.20
2022-07-27T08:54:40.572Z,26.60
2022-07-27T08:57:09.533Z,26.80
2022-07-27T08:59:37.059Z,26.80
2022-07-27T09:02:08.994Z,26.70
2022-07-27T09:04:35.961Z,26.70
2022-07-27T09:07:02.817Z,26.80
2022-07-27T09:09:46.047Z,26.80
2022-07-27T09:12:13.320Z,26.80
2022-07-27T09:14:41.368Z,26.70
2022-07-27T09:17:48.060Z,26.60
2022-07-27T09:20:19.522Z,26.60
2022-07-27T09:22:55.177Z,26.50
2022-07-27T09:25:52.554Z,26.40
2022-07-27T09:28:16.983Z,26.40
2022-07-27T09:30:44.167Z,26.40
2022-07-27T09:33:11.184Z,26.40
2022-07-27T09:35:38.422Z,26.30
2022-07-27T09:38:22.318Z,26.20
2022-07-27T09:40:59.285Z,26.10
2022-07-27T09:46:13.522Z,26.10
2022-07-27T09:48:40.649Z,26.10
2022-07-27T09:51:55.835Z,26.20
2022-07-27T09:54:06.003Z,26.30
2022-07-27T09:56:33.267Z,26.20
2022-07-27T09:59:02.032Z,26.20
2022-07-27T10:01:33.035Z,26.30
2022-07-27T10:04:02.338Z,26.50
2022-07-27T10:06:35.735Z,26.70
2022-07-27T10:09:09.641Z,27.30
2022-07-27T10:11:37.304Z,28.10
2022-07-27T10:14:04.109Z,28.60
2022-07-27T10:16:32.825Z,29.10
2022-07-27T10:19:08.113Z,29.90
2022-07-27T10:21:37.668Z,31.00
2022-07-27T10:24:07.560Z,31.60
2022-07-27T10:26:39.737Z,32.20
2022-07-27T10:29:15.370Z,32.40
2022-07-27T10:31:55.039Z,32.20
2022-07-27T10:34:42.966Z,32.10
2022-07-27T10:37:15.612Z,31.90
2022-07-27T10:39:43.705Z,32.00
2022-07-27T10:42:27.182Z,32.00
2022-07-27T10:45:00.822Z,31.20
2022-07-27T10:47:33.389Z,30.80
2022-07-27T10:50:22.512Z,31.20
2022-07-27T10:53:05.282Z,31.10
2022-07-27T10:55:36.352Z,31.00
2022-07-27T10:58:15.268Z,31.00
2022-07-27T11:00:54.557Z,31.80
2022-07-27T11:03:23.634Z,31.90
2022-07-27T11:06:04.750Z,32.00
2022-07-27T11:08:48.557Z,31.90
2022-07-27T11:11:25.369Z,31.20
2022-07-27T11:13:57.749Z,30.40
2022-07-27T11:16:26.830Z,31.10
2022-07-27T11:19:03.805Z,32.20
2022-07-27T11:21:36.646Z,31.90
2022-07-27T11:24:12.130Z,31.40
2022-07-27T11:26:42.671Z,30.90
2022-07-27T11:29:14.377Z,30.30
2022-07-27T11:31:59.080Z,30.20
2022-07-27T11:34:35.615Z,30.00
2022-07-27T11:37:05.530Z,30.10
2022-07-27T11:39:59.692Z,29.90
2022-07-27T11:42:23.580Z,30.30
2022-07-27T11:44:52.929Z,31.10
2022-07-27T11:47:23.964Z,32.20
2022-07-27T11:49:51.184Z,32.80
2022-07-27T11:52:18.664Z,33.40
2022-07-27T11:54:52.535Z,34.20
2022-07-27T11:57:20.608Z,34.50
2022-07-27T11:59:47.691Z,34.30
2022-07-27T12:02:20.500Z,34.10
2022-07-27T12:04:50.132Z,34.40
2022-07-27T12:07:20.001Z,34.70
2022-07-27T12:09:55.869Z,34.50
2022-07-27T12:12:25.845Z,34.40
2022-07-27T12:14:58.205Z,34.00
2022-07-27T12:17:34.808Z,33.90
2022-07-27T12:20:18.961Z,33.60
2022-07-27T12:22:51.238Z,32.70
2022-07-27T12:25:17.909Z,32.90
2022-07-27T12:28:05.321Z,32.60
2022-07-27T12:30:33.259Z,32.50
2022-07-27T12:33:00.931Z,32.40
2022-07-27T12:35:35.934Z,32.00
2022-07-27T12:38:07.050Z,31.30
2022-07-27T12:40:35.148Z,30.40
2022-07-27T12:43:04.628Z,30.10
2022-07-27T12:45:34.402Z,29.60
2022-07-27T12:48:09.767Z,29.40
2022-07-27T12:50:37.231Z,29.40
2022-07-27T12:53:04.444Z,29.60
2022-07-27T12:55:31.232Z,29.40
2022-07-27T12:57:58.036Z,29.30
2022-07-27T13:00:31.021Z,29.30
2022-07-27T13:03:01.499Z,29.30
2022-07-27T13:05:28.589Z,29.50
2022-07-27T13:07:55.731Z,29.60
2022-07-27T13:10:23.033Z,29.90
2022-07-27T13:12:50.763Z,29.90
2022-07-27T13:15:18.564Z,30.20
2022-07-27T13:17:46.671Z,30.70
2022-07-27T13:20:14.774Z,31.20
2022-07-27T13:22:42.387Z,31.30
2022-07-27T13:25:16.155Z,31.40
2022-07-27T13:27:45.012Z,31.50
2022-07-27T13:30:13.421Z,31.40
2022-07-27T13:32:41.379Z,31.20
2022-07-27T13:35:10.097Z,30.80
2022-07-27T13:37:36.948Z,30.50
2022-07-27T13:40:04.840Z,30.10
2022-07-27T13:42:31.683Z,29.80
2022-07-27T13:45:08.760Z,29.70
2022-07-27T13:47:37.100Z,29.70
2022-07-27T13:50:04.902Z,29.70
2022-07-27T13:52:31.715Z,30.10
2022-07-27T13:54:58.564Z,30.80
2022-07-27T13:57:25.373Z,31.10
2022-07-27T13:59:52.603Z,31.00
2022-07-27T14:02:23.071Z,30.80
2022-07-27T14:04:51.939Z,30.70
2022-07-27T14:07:18.791Z,30.50
2022-07-27T14:10:03.999Z,30.40
2022-07-27T14:12:30.753Z,30.20
2022-07-27T14:14:57.565Z,30.10
2022-07-27T14:17:24.319Z,30.20
2022-07-27T14:19:51.054Z,30.20
2022-07-27T14:22:17.867Z,30.20
2022-07-27T14:24:44.607Z,30.10
2022-07-27T14:27:11.555Z,30.20
2022-07-27T14:29:38.336Z,30.80
2022-07-27T14:32:05.704Z,31.20
2022-07-27T14:34:32.646Z,31.40
2022-07-27T14:36:59.603Z,30.80
2022-07-27T14:39:26.364Z,30.50
2022-07-27T14:41:53.127Z,30.10
2022-07-27T14:44:20.058Z,29.90
2022-07-27T14:46:47.040Z,29.60
2022-07-27T14:49:17.097Z,29.60
2022-07-27T14:51:44.262Z,29.40
2022-07-27T14:54:11.246Z,29.20
2022-07-27T14:56:38.034Z,28.90
2022-07-27T14:59:05.139Z,28.60
2022-07-27T15:01:32.166Z,28.50
2022-07-27T15:03:59.130Z,28.30
2022-07-27T15:06:26.016Z,28.30
2022-07-27T15:08:52.915Z,28.30
2022-07-27T15:11:19.728Z,28.40
2022-07-27T15:13:46.528Z,28.60
2022-07-27T15:16:13.403Z,28.60
2022-07-27T15:18:40.200Z,28.60
2022-07-27T15:21:12.826Z,28.40
2022-07-27T15:23:42.206Z,28.20
2022-07-27T15:26:09.194Z,28.30
2022-07-27T15:28:36.431Z,28.30
2022-07-27T15:31:03.660Z,28.30
2022-07-27T15:33:30.934Z,28.20
2022-07-27T15:35:57.631Z,28.30
2022-07-27T15:38:24.416Z,28.40
2022-07-27T15:40:51.202Z,28.70
2022-07-27T15:43:18.758Z,29.10
2022-07-27T15:45:48.955Z,29.40
2022-07-27T15:48:17.464Z,29.70
2022-07-27T15:50:48.545Z,30.00
2022-07-27T15:53:16.212Z,30.00
2022-07-27T15:55:43.840Z,30.10
2022-07-27T15:58:11.319Z,30.30
2022-07-27T16:00:40.756Z,30.30
2022-07-27T16:03:10.240Z,30.10
2022-07-27T16:05:38.186Z,29.90
2022-07-27T16:08:06.299Z,29.90
2022-07-27T16:10:33.143Z,29.90
2022-07-27T16:13:00.660Z,30.00
2022-07-27T16:15:46.316Z,30.20
2022-07-27T16:18:13.306Z,30.40
2022-07-27T16:20:40.130Z,30.50
2022-07-27T16:23:18.841Z,30.40
2022-07-27T16:26:07.676Z,30.40
2022-07-27T16:28:44.126Z,30.30
2022-07-27T16:31:13.856Z,29.90
2022-07-27T16:33:44.083Z,29.70
2022-07-27T16:36:12.436Z,29.40
2022-07-27T16:38:49.715Z,29.10
2022-07-27T16:41:20.649Z,28.90
2022-07-27T16:43:47.584Z,28.60
2022-07-27T16:46:15.043Z,28.50
2022-07-27T16:48:43.423Z,28.40
2022-07-27T16:51:15.210Z,28.50
2022-07-27T16:53:44.142Z,28.40
2022-07-27T16:56:12.136Z,28.30
2022-07-27T16:58:39.303Z,28.20
2022-07-27T17:01:06.731Z,28.20
2022-07-27T17:03:34.182Z,28.10
2022-07-27T17:06:06.046Z,28.10
2022-07-27T17:08:35.571Z,28.10
2022-07-27T17:11:02.818Z,28.00
2022-07-27T17:13:34.158Z,28.00
2022-07-27T17:16:02.784Z,27.70
2022-07-27T17:18:34.250Z,27.60
2022-07-27T17:21:05.111Z,27.60
2022-07-27T17:23:37.731Z,27.60
2022-07-27T17:26:06.520Z,27.50
2022-07-27T17:28:36.551Z,27.50
2022-07-27T17:31:04.588Z,27.50
2022-07-27T17:33:31.865Z,27.40
2022-07-27T17:35:59.667Z,27.40
2022-07-27T17:38:26.874Z,27.30
2022-07-27T17:40:53.936Z,27.20
2022-07-27T17:43:20.797Z,27.10
2022-07-27T17:45:48.499Z,27.00
2022-07-27T17:48:15.294Z,27.00
2022-07-27T17:50:42.071Z,26.90
2022-07-27T17:53:08.831Z,26.70
2022-07-27T17:55:37.844Z,26.40
2022-07-27T17:58:04.630Z,26.40
2022-07-27T18:00:31.429Z,26.30
2022-07-27T18:02:58.619Z,26.30
2022-07-27T18:05:25.418Z,26.30
2022-07-27T18:07:53.748Z,26.30
2022-07-27T18:10:20.805Z,26.30
2022-07-27T18:12:47.718Z,26.30
2022-07-27T18:15:33.492Z,26.30
2022-07-27T18:18:00.593Z,26.30
2022-07-27T18:20:27.461Z,26.20
2022-07-27T18:22:54.217Z,26.10
2022-07-27T18:25:22.060Z,26.00
2022-07-27T18:27:50.015Z,26.00
2022-07-27T18:30:17.768Z,26.00
2022-07-27T18:32:47.644Z,26.00
2022-07-27T18:35:15.064Z,25.90
2022-07-27T18:37:41.899Z,25.90
2022-07-27T18:40:09.693Z,25.60
2022-07-27T18:42:37.692Z,25.60
2022-07-27T18:45:07.109Z,25.50
2022-07-27T18:47:34.418Z,25.50
2022-07-27T18:50:01.592Z,25.50
2022-07-27T18:52:28.380Z,25.50
2022-07-27T18:54:55.485Z,25.50
2022-07-27T18:57:22.267Z,25.50
2022-07-27T18:59:49.326Z,25.50
2022-07-27T19:02:16.583Z,25.40
2022-07-27T19:04:43.552Z,25.30
2022-07-27T19:07:10.997Z,25.20
2022-07-27T19:09:41.127Z,25.10
2022-07-27T19:12:09.787Z,25.10
2022-07-27T19:14:37.082Z,24.90
2022-07-27T19:17:04.018Z,24.80
2022-07-27T19:19:31.389Z,24.70
2022-07-27T19:21:58.435Z,24.70
2022-07-27T19:24:25.277Z,24.60
2022-07-27T19:26:52.094Z,24.50
2022-07-27T19:29:21.124Z,24.50
2022-07-27T19:31:48.294Z,24.50
2022-07-27T19:34:15.044Z,24.50
2022-07-27T19:36:41.800Z,24.30
2022-07-27T19:39:08.607Z,24.20
2022-07-27T19:41:36.074Z,24.10
2022-07-27T19:44:04.570Z,24.10
2022-07-27T19:46:31.813Z,24.10
2022-07-27T19:48:59.152Z,24.00
2022-07-27T19:51:26.580Z,23.90
2022-07-27T19:53:53.531Z,23.90
2022-07-27T19:56:20.413Z,23.80
2022-07-27T19:58:47.338Z,23.80
2022-07-27T20:01:14.452Z,23.80
2022-07-27T20:03:48.837Z,23.70
2022-07-27T20:06:21.424Z,23.60
2022-07-27T20:08:48.614Z,23.50
2022-07-27T20:11:15.381Z,23.50
2022-07-27T20:13:42.403Z,23.50
2022-07-27T20:16:09.140Z,23.40
2022-07-27T20:18:37.565Z,23.40
2022-07-27T20:21:04.726Z,23.40
2022-07-27T20:23:49.936Z,23.40
2022-07-27T20:26:16.711Z,23.30
2022-07-27T20:28:43.505Z,23.20
2022-07-27T20:31:10.478Z,23.20
2022-07-27T20:33:37.342Z,23.20
2022-07-27T20:36:04.966Z,23.10
2022-07-27T20:38:31.846Z,23.10
2022-07-27T20:40:59.387Z,23.10
2022-07-27T20:43:28.893Z,23.10
2022-07-27T20:45:56.315Z,23.00
2022-07-27T20:48:23.527Z,23.00
2022-07-27T20:50:51.505Z,23.00
2022-07-27T20:53:20.260Z,23.00
2022-07-27T20:55:48.181Z,22.90
2022-07-27T20:58:15.066Z,22.90
2022-07-27T21:00:41.909Z,22.90
2022-07-27T21:03:08.692Z,22.80
2022-07-27T21:05:35.469Z,22.80
2022-07-27T21:08:02.285Z,22.80
2022-07-27T21:10:29.049Z,22.70
2022-07-27T21:12:55.869Z,22.70
2022-07-27T21:15:22.695Z,22.70
2022-07-27T21:18:01.010Z,22.60
2022-07-27T21:20:27.822Z,22.40
2022-07-27T21:23:13.238Z,22.40
2022-07-27T21:25:40.671Z,22.30
2022-07-27T21:28:07.463Z,22.20
2022-07-27T21:30:36.461Z,22.10
2022-07-27T21:33:03.390Z,22.10
2022-07-27T21:35:30.213Z,22.10
2022-07-27T21:37:57.073Z,22.00
2022-07-27T21:40:23.929Z,21.90
2022-07-27T21:42:50.789Z,21.90
2022-07-27T21:45:17.880Z,21.80
2022-07-27T21:47:44.642Z,21.70
2022-07-27T21:50:11.426Z,21.60
2022-07-27T21:52:38.196Z,21.60
2022-07-27T21:55:05.672Z,21.60
2022-07-27T21:57:32.610Z,21.50
2022-07-27T21:59:59.363Z,21.50
2022-07-27T22:02:27.517Z,21.30
2022-07-27T22:04:55.263Z,21.20
2022-07-27T22:07:22.259Z,21.10
2022-07-27T22:09:49.046Z,21.10
2022-07-27T22:12:15.902Z,21.00
2022-07-27T22:14:42.668Z,20.90
2022-07-27T22:17:09.438Z,20.90
2022-07-27T22:19:36.195Z,20.90
2022-07-27T22:22:04.216Z,20.90
2022-07-27T22:24:31.054Z,21.00
2022-07-27T22:26:57.888Z,21.00
2022-07-27T22:29:24.750Z,21.10
2022-07-27T22:31:51.613Z,21.00
2022-07-27T22:34:18.427Z,20.90
2022-07-27T22:36:45.140Z,20.90
2022-07-27T22:39:12.879Z,20.90
2022-07-27T22:41:39.656Z,20.90
2022-07-27T22:44:06.354Z,20.70
2022-07-27T22:46:33.185Z,20.60
2022-07-27T22:49:00.044Z,20.40
2022-07-27T22:51:49.767Z,20.20
2022-07-27T22:54:13.850Z,20.00
2022-07-27T22:56:40.846Z,19.90
2022-07-27T22:59:07.596Z,19.90
